createdAt,value
2023-08-17T00:01:13.366Z,3.73
2023-08-17T00:03:42.829Z,3.10
2023-08-17T00:06:10.868Z,4.47
2023-08-17T00:08:38.998Z,5.77
2023-08-17T00:11:06.989Z,3.30
2023-08-17T00:13:35.132Z,4.93
2023-08-17T00:16:04.016Z,4.37
2023-08-17T00:18:32.103Z,4.27
2023-08-17T00:21:01.462Z,4.20
2023-08-17T00:23:29.505Z,4.60
2023-08-17T00:25:57.512Z,3.40
2023-08-17T00:28:25.533Z,4.17
2023-08-17T00:30:54.651Z,4.10
2023-08-17T00:33:22.769Z,5.33
2023-08-17T00:35:50.752Z,3.83
2023-08-17T00:38:20.271Z,5.63
2023-08-17T00:40:48.607Z,3.77
2023-08-17T00:43:16.662Z,4.87
2023-08-17T00:45:47.587Z,5.40
2023-08-17T00:48:16.414Z,4.10
2023-08-17T00:50:45.754Z,4.63
2023-08-17T00:53:14.648Z,3.13
2023-08-17T00:55:44.736Z,4.97
2023-08-17T00:58:12.970Z,5.10
2023-08-17T01:00:42.365Z,3.00
2023-08-17T01:03:10.724Z,4.40
2023-08-17T01:05:38.909Z,2.60
2023-08-17T01:08:07.312Z,3.20
2023-08-17T01:10:49.805Z,4.73
2023-08-17T01:13:23.270Z,3.53
2023-08-17T01:15:54.668Z,5.07
2023-08-17T01:18:26.266Z,4.03
2023-08-17T01:20:55.657Z,3.93
2023-08-17T01:23:25.505Z,3.80
2023-08-17T01:25:54.806Z,3.97
2023-08-17T01:28:22.992Z,2.80
2023-08-17T01:30:58.141Z,6.67
2023-08-17T01:33:33.351Z,4.13
2023-08-17T01:36:09.065Z,4.00
2023-08-17T01:38:38.943Z,3.40
2023-08-17T01:41:08.123Z,3.97
2023-08-17T01:43:37.385Z,7.67
2023-08-17T01:46:05.527Z,4.33
2023-08-17T01:48:33.754Z,5.83
2023-08-17T01:51:02.329Z,4.17
2023-08-17T01:53:30.352Z,3.90
2023-08-17T01:55:59.783Z,4.77
2023-08-17T01:58:27.802Z,4.23
2023-08-17T02:00:55.849Z,4.00
2023-08-17T02:03:24.035Z,4.77
2023-08-17T02:05:52.056Z,3.83
2023-08-17T02:08:20.077Z,4.07
2023-08-17T02:10:48.146Z,4.27
2023-08-17T02:13:18.676Z,7.23
2023-08-17T02:15:46.793Z,5.40
2023-08-17T02:18:14.953Z,4.07
2023-08-17T02:20:42.973Z,4.77
2023-08-17T02:23:10.980Z,5.13
2023-08-17T02:25:40.826Z,4.37
2023-08-17T02:28:09.012Z,4.17
2023-08-17T02:30:38.554Z,5.00
2023-08-17T02:33:06.816Z,4.70
2023-08-17T02:35:35.120Z,3.33
2023-08-17T02:38:03.115Z,4.70
2023-08-17T02:40:31.132Z,4.43
2023-08-17T02:42:59.133Z,3.93
2023-08-17T02:45:27.134Z,4.20
2023-08-17T02:47:56.569Z,4.60
2023-08-17T02:50:24.586Z,6.40
2023-08-17T02:52:52.586Z,4.30
2023-08-17T02:55:20.609Z,3.17
2023-08-17T02:57:48.586Z,3.73
2023-08-17T03:00:17.041Z,6.87
2023-08-17T03:02:45.193Z,4.60
2023-08-17T03:05:14.711Z,3.27
2023-08-17T03:07:42.677Z,6.27
2023-08-17T03:10:11.036Z,4.57
2023-08-17T03:12:40.044Z,4.77
2023-08-17T03:15:08.841Z,5.97
2023-08-17T03:17:36.928Z,5.17
2023-08-17T03:20:07.593Z,6.07
2023-08-17T03:22:37.215Z,6.13
2023-08-17T03:25:05.949Z,4.93
2023-08-17T03:27:33.996Z,4.57
2023-08-17T03:30:02.115Z,5.90
2023-08-17T03:32:30.344Z,5.57
2023-08-17T03:34:58.412Z,4.03
2023-08-17T03:37:26.756Z,5.73
2023-08-17T03:39:56.297Z,6.87
2023-08-17T03:42:24.300Z,5.37
2023-08-17T03:44:53.254Z,5.63
2023-08-17T03:47:21.258Z,7.13
2023-08-17T03:49:49.297Z,5.97
2023-08-17T03:52:17.285Z,7.47
2023-08-17T03:54:45.273Z,6.50
2023-08-17T03:57:14.748Z,5.53
2023-08-17T03:59:43.634Z,6.27
2023-08-17T04:02:11.802Z,7.43
2023-08-17T04:04:39.871Z,7.20
2023-08-17T04:07:08.454Z,4.40
2023-08-17T04:09:36.560Z,5.83
2023-08-17T04:12:06.093Z,6.40
2023-08-17T04:14:35.456Z,6.80
2023-08-17T04:17:03.623Z,5.57
2023-08-17T04:19:31.599Z,6.47
2023-08-17T04:21:59.713Z,5.70
2023-08-17T04:24:27.788Z,4.40
2023-08-17T04:26:56.083Z,5.57
2023-08-17T04:29:24.134Z,6.27
2023-08-17T04:31:53.652Z,5.50
2023-08-17T04:34:21.857Z,6.10
2023-08-17T04:36:49.858Z,9.60
2023-08-17T04:39:18.399Z,4.77
2023-08-17T04:41:46.435Z,5.97
2023-08-17T04:44:14.402Z,6.37
2023-08-17T04:46:42.453Z,6.00
2023-08-17T04:49:12.149Z,6.23
2023-08-17T04:51:40.296Z,6.87
2023-08-17T04:54:08.343Z,4.27
2023-08-17T04:56:36.296Z,6.50
2023-08-17T04:59:04.404Z,5.33
2023-08-17T05:01:33.175Z,6.03
2023-08-17T05:04:01.398Z,4.23
2023-08-17T05:06:31.803Z,3.63
2023-08-17T05:09:00.178Z,4.87
2023-08-17T05:11:28.342Z,5.67
2023-08-17T05:13:56.403Z,4.67
2023-08-17T05:16:24.437Z,3.80
2023-08-17T05:18:52.471Z,4.47
2023-08-17T05:21:20.462Z,3.97
2023-08-17T05:23:49.828Z,6.40
2023-08-17T05:26:17.842Z,5.27
2023-08-17T05:28:46.206Z,4.73
2023-08-17T05:31:14.313Z,4.73
2023-08-17T05:33:42.535Z,5.60
2023-08-17T05:36:10.628Z,6.03
2023-08-17T05:38:38.771Z,4.07
2023-08-17T05:41:08.253Z,4.70
2023-08-17T05:43:36.244Z,4.57
2023-08-17T05:46:04.278Z,4.37
2023-08-17T05:48:32.500Z,3.40
2023-08-17T05:51:00.550Z,5.93
2023-08-17T05:53:28.570Z,4.50
2023-08-17T05:55:56.589Z,3.33
2023-08-17T05:58:26.434Z,3.77
2023-08-17T06:00:54.583Z,5.10
2023-08-17T06:03:22.659Z,3.70
2023-08-17T06:05:54.274Z,3.83
2023-08-17T06:08:22.268Z,4.33
2023-08-17T06:10:50.316Z,4.80
2023-08-17T06:13:18.299Z,4.67
2023-08-17T06:15:47.644Z,3.57
2023-08-17T06:18:15.691Z,5.60
2023-08-17T06:20:44.072Z,4.57
2023-08-17T06:23:12.113Z,3.50
2023-08-17T06:25:40.247Z,5.47
2023-08-17T06:28:08.853Z,5.17
2023-08-17T06:30:36.898Z,4.83
2023-08-17T06:33:06.985Z,6.10
2023-08-17T06:35:35.048Z,7.33
2023-08-17T06:38:03.080Z,4.83
2023-08-17T06:40:31.140Z,5.53
2023-08-17T06:42:59.158Z,5.87
2023-08-17T06:45:27.592Z,4.73
2023-08-17T06:47:55.592Z,6.37
2023-08-17T06:50:25.046Z,6.87
2023-08-17T06:52:53.173Z,6.73
2023-08-17T06:55:21.194Z,6.33
2023-08-17T06:57:50.834Z,7.33
2023-08-17T07:00:21.387Z,7.17
2023-08-17T07:02:54.691Z,5.33
2023-08-17T07:05:25.869Z,7.83
2023-08-17T07:07:54.077Z,5.47
2023-08-17T07:10:23.408Z,5.03
2023-08-17T07:12:51.437Z,6.13
2023-08-17T07:15:19.639Z,6.63
2023-08-17T07:17:47.701Z,4.93
2023-08-17T07:20:17.296Z,5.00
2023-08-17T07:22:46.984Z,6.57
2023-08-17T07:25:15.058Z,5.13
2023-08-17T07:27:43.626Z,6.73
2023-08-17T07:30:12.877Z,4.73
2023-08-17T07:32:41.148Z,5.77
2023-08-17T07:35:09.862Z,4.87
2023-08-17T07:37:39.081Z,4.77
2023-08-17T07:40:09.845Z,4.23
2023-08-17T07:42:39.235Z,4.93
2023-08-17T07:45:08.667Z,5.17
2023-08-17T07:47:38.001Z,5.83
2023-08-17T07:50:07.038Z,6.43
2023-08-17T07:52:35.043Z,4.43
2023-08-17T07:55:03.161Z,3.77
2023-08-17T07:57:32.638Z,5.63
2023-08-17T08:00:00.627Z,3.47
2023-08-17T08:02:28.783Z,5.20
2023-08-17T08:04:56.990Z,5.13
2023-08-17T08:07:25.383Z,4.83
2023-08-17T08:09:53.698Z,4.33
2023-08-17T08:12:21.728Z,4.13
2023-08-17T08:14:52.243Z,5.43
2023-08-17T08:17:21.055Z,3.50
2023-08-17T08:19:49.070Z,3.77
2023-08-17T08:22:17.074Z,4.60
2023-08-17T08:24:45.616Z,4.90
2023-08-17T08:27:13.913Z,5.20
2023-08-17T08:29:42.219Z,5.20
2023-08-17T08:32:11.804Z,5.10
2023-08-17T08:34:39.910Z,6.57
2023-08-17T08:37:07.932Z,4.53
2023-08-17T08:39:51.003Z,5.37
2023-08-17T08:42:19.467Z,4.17
2023-08-17T08:44:48.030Z,6.27
2023-08-17T08:47:19.170Z,5.80
2023-08-17T08:49:58.800Z,3.77
2023-08-17T08:52:36.255Z,4.43
2023-08-17T08:55:12.281Z,4.57
2023-08-17T08:57:42.698Z,4.27
2023-08-17T09:00:11.809Z,6.93
2023-08-17T09:02:41.799Z,5.13
2023-08-17T09:05:12.164Z,4.37
2023-08-17T09:07:41.199Z,4.93
2023-08-17T09:10:10.884Z,5.43
2023-08-17T09:12:41.111Z,7.10
2023-08-17T09:15:10.401Z,5.73
2023-08-17T09:17:39.944Z,4.00
2023-08-17T09:20:10.452Z,6.27
2023-08-17T09:22:43.847Z,6.70
2023-08-17T09:25:13.018Z,5.13
2023-08-17T09:27:42.427Z,5.37
2023-08-17T09:30:12.913Z,6.37
2023-08-17T09:32:43.993Z,7.20
2023-08-17T09:35:11.986Z,5.40
2023-08-17T09:37:40.083Z,6.57
2023-08-17T09:40:09.942Z,6.90
2023-08-17T09:42:38.014Z,6.70
2023-08-17T09:45:07.108Z,5.07
2023-08-17T09:47:35.843Z,7.53
2023-08-17T09:50:08.491Z,6.03
2023-08-17T09:52:40.999Z,5.60
2023-08-17T09:55:11.926Z,4.83
2023-08-17T09:57:40.908Z,5.67
2023-08-17T10:00:11.011Z,5.47
2023-08-17T10:02:39.041Z,5.73
2023-08-17T10:05:13.195Z,6.53
2023-08-17T10:07:47.688Z,6.70
2023-08-17T10:10:18.777Z,6.77
2023-08-17T10:12:59.603Z,6.40
2023-08-17T10:15:31.714Z,6.37
2023-08-17T10:18:04.450Z,5.40
2023-08-17T10:20:37.228Z,6.23
2023-08-17T10:23:12.896Z,7.60
2023-08-17T10:25:42.640Z,7.87
2023-08-17T10:28:11.177Z,6.27
2023-08-17T10:30:39.491Z,6.03
2023-08-17T10:33:08.834Z,6.53
2023-08-17T10:35:40.467Z,5.90
2023-08-17T10:38:11.373Z,6.23
2023-08-17T10:40:42.007Z,6.03
2023-08-17T10:43:10.114Z,7.80
2023-08-17T10:45:40.012Z,9.37
2023-08-17T10:48:28.673Z,8.70
2023-08-17T10:51:07.853Z,8.63
2023-08-17T10:53:43.800Z,8.90
2023-08-17T10:56:16.417Z,8.00
2023-08-17T10:58:47.332Z,7.53
2023-08-17T11:01:22.595Z,8.50
2023-08-17T11:04:12.252Z,7.23
2023-08-17T11:06:41.898Z,7.10
2023-08-17T11:09:10.578Z,7.00
2023-08-17T11:11:39.118Z,8.40
2023-08-17T11:14:07.161Z,7.67
2023-08-17T11:16:35.197Z,8.50
2023-08-17T11:19:03.255Z,8.03
2023-08-17T11:21:31.300Z,9.53
2023-08-17T11:24:01.605Z,7.83
2023-08-17T11:26:35.521Z,9.63
2023-08-17T11:29:04.971Z,8.27
2023-08-17T11:31:35.361Z,8.60
2023-08-17T11:34:03.457Z,7.73
2023-08-17T11:36:31.504Z,7.90
2023-08-17T11:39:00.889Z,8.23
2023-08-17T11:41:28.978Z,7.23
2023-08-17T11:43:57.669Z,8.37
2023-08-17T11:46:29.005Z,8.47
2023-08-17T11:49:00.588Z,8.37
2023-08-17T11:51:31.959Z,7.67
2023-08-17T11:54:04.250Z,7.73
2023-08-17T11:56:32.431Z,8.47
2023-08-17T11:59:00.567Z,7.63
2023-08-17T12:01:28.581Z,7.70
2023-08-17T12:03:56.625Z,7.70
2023-08-17T12:06:24.678Z,8.00
2023-08-17T12:08:52.787Z,7.80
2023-08-17T12:11:26.055Z,8.33
2023-08-17T12:13:55.013Z,8.93
2023-08-17T12:16:24.686Z,8.43
2023-08-17T12:18:54.193Z,8.00
2023-08-17T12:21:23.295Z,7.90
2023-08-17T12:23:51.499Z,8.10
2023-08-17T12:26:24.143Z,8.17
2023-08-17T12:28:52.321Z,9.87
2023-08-17T12:31:25.177Z,8.17
2023-08-17T12:33:53.974Z,7.80
2023-08-17T12:36:22.773Z,8.83
2023-08-17T12:38:51.161Z,7.83
2023-08-17T12:41:19.389Z,8.23
2023-08-17T12:43:48.987Z,10.20
2023-08-17T12:46:17.061Z,8.17
2023-08-17T12:48:45.164Z,7.70
2023-08-17T12:51:13.202Z,8.43
2023-08-17T12:53:41.208Z,7.60
2023-08-17T12:56:09.443Z,7.97
2023-08-17T12:58:37.551Z,10.07
2023-08-17T13:01:06.971Z,8.27
2023-08-17T13:03:35.097Z,8.70
2023-08-17T13:06:03.892Z,7.03
2023-08-17T13:08:31.950Z,9.27
2023-08-17T13:10:59.974Z,8.37
2023-08-17T13:13:27.997Z,8.40
2023-08-17T13:15:56.063Z,9.47
2023-08-17T13:18:25.463Z,9.60
2023-08-17T13:20:53.445Z,9.57
2023-08-17T13:23:21.549Z,9.03
2023-08-17T13:25:49.549Z,9.17
2023-08-17T13:28:17.511Z,9.63
2023-08-17T13:30:45.525Z,9.20
2023-08-17T13:33:13.659Z,10.40
2023-08-17T13:35:43.194Z,10.50
2023-08-17T13:38:11.311Z,9.57
2023-08-17T13:40:40.240Z,9.83
2023-08-17T13:43:13.139Z,10.53
2023-08-17T13:45:41.568Z,6.13
2023-08-17T13:48:09.983Z,4.40
2023-08-17T13:50:42.205Z,3.50
2023-08-17T13:53:10.204Z,2.07
2023-08-17T13:55:38.425Z,1.80
2023-08-17T13:58:06.551Z,2.27
2023-08-17T14:00:34.552Z,3.13
2023-08-17T14:03:03.175Z,2.30
2023-08-17T14:05:31.356Z,2.40
2023-08-17T14:08:00.754Z,2.57
2023-08-17T14:10:38.462Z,2.23
2023-08-17T14:13:08.425Z,2.70
2023-08-17T14:15:36.413Z,2.40
2023-08-17T14:18:05.305Z,3.33
2023-08-17T14:20:33.361Z,2.40
2023-08-17T14:23:02.737Z,2.33
2023-08-17T14:25:30.784Z,2.03
2023-08-17T14:27:59.972Z,2.47
2023-08-17T14:30:28.324Z,2.97
2023-08-17T14:33:00.725Z,2.20
2023-08-17T14:35:29.364Z,2.80
2023-08-17T14:37:59.161Z,2.83
2023-08-17T14:40:29.048Z,2.00
2023-08-17T14:42:57.219Z,1.50
2023-08-17T14:45:26.328Z,1.97
2023-08-17T14:47:54.380Z,1.93
2023-08-17T14:50:28.868Z,1.87
2023-08-17T14:52:57.357Z,1.77
2023-08-17T14:55:25.688Z,1.90
2023-08-17T14:57:55.038Z,1.60
2023-08-17T15:00:23.120Z,1.10
2023-08-17T15:02:51.568Z,1.00
2023-08-17T15:05:20.029Z,2.20
2023-08-17T15:07:48.032Z,0.93
2023-08-17T15:10:16.316Z,1.07
2023-08-17T15:12:45.315Z,0.90
2023-08-17T15:17:48.005Z,1.13
2023-08-17T15:20:16.154Z,2.00
2023-08-17T15:22:44.132Z,1.10
2023-08-17T15:25:12.159Z,1.00
2023-08-17T15:27:40.132Z,1.07
2023-08-17T15:30:09.520Z,1.77
2023-08-17T15:32:38.883Z,1.57
2023-08-17T15:35:08.012Z,1.00
2023-08-17T15:37:38.151Z,1.43
2023-08-17T15:40:07.458Z,1.27
2023-08-17T15:42:35.735Z,1.00
2023-08-17T15:45:04.057Z,1.13
2023-08-17T15:47:32.239Z,1.00
2023-08-17T15:50:02.768Z,0.93
2023-08-17T15:52:30.814Z,2.23
2023-08-17T15:54:58.904Z,0.90
2023-08-17T15:57:27.357Z,1.37
2023-08-17T15:59:55.575Z,1.07
2023-08-17T16:02:23.628Z,2.73
2023-08-17T16:04:51.683Z,1.63
2023-08-17T16:07:21.048Z,1.27
2023-08-17T16:09:49.033Z,1.43
2023-08-17T16:12:17.025Z,2.03
2023-08-17T16:14:49.489Z,1.27
2023-08-17T16:17:17.805Z,2.37
2023-08-17T16:19:45.769Z,1.30
2023-08-17T16:22:17.225Z,1.63
2023-08-17T16:24:46.809Z,1.47
2023-08-17T16:27:14.823Z,3.00
2023-08-17T16:29:42.847Z,1.40
2023-08-17T16:32:10.937Z,2.20
2023-08-17T16:34:40.059Z,1.70
2023-08-17T16:37:08.101Z,1.40
2023-08-17T16:39:36.054Z,1.20
2023-08-17T16:42:05.898Z,1.33
2023-08-17T16:44:33.877Z,2.03
2023-08-17T16:47:02.109Z,1.93
2023-08-17T16:49:30.747Z,1.33
2023-08-17T16:52:00.426Z,1.93
2023-08-17T16:54:28.475Z,1.97
2023-08-17T16:56:56.563Z,2.40
2023-08-17T16:59:25.883Z,3.07
2023-08-17T17:01:55.428Z,3.13
2023-08-17T17:04:23.595Z,1.83
2023-08-17T17:06:52.328Z,1.97
2023-08-17T17:09:21.271Z,1.83
2023-08-17T17:11:49.654Z,2.50
2023-08-17T17:14:17.864Z,3.70
2023-08-17T17:16:47.447Z,1.70
2023-08-17T17:19:14.530Z,2.93
2023-08-17T17:21:42.675Z,2.10
2023-08-17T17:24:10.809Z,2.70
2023-08-17T17:26:39.312Z,4.60
2023-08-17T17:29:08.253Z,1.97
2023-08-17T17:31:36.381Z,2.37
2023-08-17T17:34:06.333Z,2.53
2023-08-17T17:36:35.270Z,2.83
2023-08-17T17:39:03.426Z,2.83
2023-08-17T17:41:31.422Z,2.43
2023-08-17T17:43:59.392Z,2.53
2023-08-17T17:46:27.444Z,2.50
2023-08-17T17:48:55.459Z,3.93
2023-08-17T17:51:25.729Z,2.17
2023-08-17T17:53:55.632Z,1.57
2023-08-17T17:56:38.888Z,2.03
2023-08-17T17:59:08.995Z,2.77
2023-08-17T18:01:38.513Z,2.23
2023-08-17T18:04:06.942Z,1.57
2023-08-17T18:06:36.860Z,2.00
2023-08-17T18:09:06.727Z,1.90
2023-08-17T18:11:34.722Z,4.73
2023-08-17T18:14:03.524Z,2.80
2023-08-17T18:16:31.952Z,4.17
2023-08-17T18:19:00.383Z,3.13
2023-08-17T18:21:31.174Z,1.83
2023-08-17T18:24:01.239Z,2.40
2023-08-17T18:26:29.239Z,2.37
2023-08-17T18:28:58.617Z,1.83
2023-08-17T18:31:26.994Z,3.73
2023-08-17T18:33:55.112Z,3.63
2023-08-17T18:36:23.083Z,2.30
2023-08-17T18:38:51.028Z,2.60
2023-08-17T18:41:20.391Z,2.00
2023-08-17T18:43:49.099Z,2.13
2023-08-17T18:46:17.661Z,1.63
2023-08-17T18:48:45.679Z,2.67
2023-08-17T18:51:13.738Z,2.97
2023-08-17T18:53:41.760Z,2.03
2023-08-17T18:56:09.761Z,2.57
2023-08-17T18:58:39.157Z,1.80
2023-08-17T19:01:07.243Z,3.13
2023-08-17T19:03:35.564Z,1.90
2023-08-17T19:06:04.202Z,2.20
2023-08-17T19:08:32.195Z,2.40
2023-08-17T19:11:00.294Z,2.40
2023-08-17T19:13:28.463Z,2.03
2023-08-17T19:15:57.836Z,2.70
2023-08-17T19:18:25.990Z,2.43
2023-08-17T19:20:54.026Z,2.47
2023-08-17T19:23:22.068Z,3.43
2023-08-17T19:25:50.092Z,2.40
2023-08-17T19:28:18.115Z,2.20
2023-08-17T19:30:46.151Z,2.07
2023-08-17T19:33:15.490Z,3.77
2023-08-17T19:35:46.121Z,3.03
2023-08-17T19:38:14.416Z,3.43
2023-08-17T19:40:45.649Z,2.33
2023-08-17T19:43:13.690Z,3.53
2023-08-17T19:45:41.864Z,3.00
2023-08-17T19:48:10.111Z,2.90
2023-08-17T19:50:39.522Z,4.27
2023-08-17T19:53:07.523Z,2.20
2023-08-17T19:55:35.617Z,2.37
2023-08-17T19:58:03.590Z,3.70
2023-08-17T20:00:31.691Z,3.93
2023-08-17T20:02:59.789Z,4.50
2023-08-17T20:05:27.828Z,4.70
2023-08-17T20:07:57.232Z,4.23
2023-08-17T20:10:25.364Z,3.77
2023-08-17T20:12:53.358Z,4.63
2023-08-17T20:15:21.355Z,4.37
2023-08-17T20:17:49.371Z,3.63
2023-08-17T20:20:17.599Z,5.23
2023-08-17T20:22:45.838Z,2.80
2023-08-17T20:25:15.426Z,2.57
2023-08-17T20:27:44.015Z,4.10
2023-08-17T20:30:13.027Z,5.87
2023-08-17T20:32:41.477Z,3.67
2023-08-17T20:35:10.061Z,3.90
2023-08-17T20:37:39.544Z,3.57
2023-08-17T20:40:09.286Z,3.17
2023-08-17T20:42:38.647Z,4.10
2023-08-17T20:45:07.507Z,4.50
2023-08-17T20:47:35.730Z,5.07
2023-08-17T20:50:04.273Z,4.80
2023-08-17T20:52:32.343Z,3.60
2023-08-17T20:55:00.349Z,4.70
2023-08-17T20:57:28.504Z,3.97
2023-08-17T20:59:58.235Z,4.60
2023-08-17T21:02:26.230Z,5.20
2023-08-17T21:04:54.236Z,4.03
2023-08-17T21:07:22.199Z,4.00
2023-08-17T21:09:50.186Z,3.40
2023-08-17T21:12:18.170Z,3.63
2023-08-17T21:14:48.222Z,3.07
2023-08-17T21:17:17.666Z,4.33
2023-08-17T21:19:45.786Z,4.70
2023-08-17T21:22:13.750Z,4.20
2023-08-17T21:24:41.740Z,5.20
2023-08-17T21:27:09.694Z,5.17
2023-08-17T21:29:37.672Z,3.27
2023-08-17T21:32:06.255Z,3.00
2023-08-17T21:34:35.695Z,3.60
2023-08-17T21:37:09.105Z,4.43
2023-08-17T21:39:37.247Z,5.23
2023-08-17T21:42:05.741Z,3.97
2023-08-17T21:44:33.812Z,5.43
2023-08-17T21:47:01.776Z,5.07
2023-08-17T21:49:29.815Z,4.13
2023-08-17T21:51:59.146Z,5.13
2023-08-17T21:54:27.496Z,3.53
2023-08-17T21:56:55.983Z,5.53
2023-08-17T21:59:24.044Z,3.47
2023-08-17T22:01:52.257Z,4.10
2023-08-17T22:04:20.322Z,4.03
2023-08-17T22:06:48.319Z,4.43
2023-08-17T22:09:17.752Z,5.20
2023-08-17T22:11:45.715Z,3.47
2023-08-17T22:14:13.751Z,3.93
2023-08-17T22:16:41.837Z,3.93
2023-08-17T22:19:10.005Z,5.03
2023-08-17T22:21:38.130Z,3.80
2023-08-17T22:24:06.657Z,3.83
2023-08-17T22:26:36.026Z,3.40
2023-08-17T22:29:04.501Z,2.97
2023-08-17T22:31:33.472Z,3.23
2023-08-17T22:34:01.514Z,2.97
2023-08-17T22:36:29.634Z,3.13
2023-08-17T22:38:57.623Z,3.63
2023-08-17T22:41:26.081Z,3.77
2023-08-17T22:43:55.444Z,4.17
2023-08-17T22:46:23.543Z,3.33
2023-08-17T22:48:51.562Z,3.60
2023-08-17T22:51:19.570Z,1.83
2023-08-17T22:53:47.562Z,3.67
2023-08-17T22:56:15.602Z,2.60
2023-08-17T22:58:44.171Z,3.00
2023-08-17T23:01:13.603Z,4.10
2023-08-17T23:03:41.644Z,5.80
2023-08-17T23:06:09.628Z,2.10
2023-08-17T23:08:37.737Z,2.90
2023-08-17T23:11:05.754Z,2.87
2023-08-17T23:13:33.996Z,3.90
2023-08-17T23:16:02.043Z,3.77
2023-08-17T23:18:31.407Z,3.77
2023-08-17T23:20:59.402Z,3.17
2023-08-17T23:23:27.386Z,3.57
2023-08-17T23:25:55.629Z,4.17
2023-08-17T23:28:23.688Z,3.50
2023-08-17T23:30:52.003Z,4.20
2023-08-17T23:33:20.011Z,3.47
2023-08-17T23:35:49.414Z,5.03
2023-08-17T23:38:17.410Z,4.60
2023-08-17T23:40:45.394Z,4.80
2023-08-17T23:43:13.601Z,5.43
2023-08-17T23:45:41.706Z,5.03
2023-08-17T23:48:10.225Z,5.00
2023-08-17T23:50:38.227Z,4.50
2023-08-17T23:53:07.757Z,6.27
2023-08-17T23:55:35.774Z,5.37
2023-08-17T23:58:03.760Z,6.70
